sensor_id;sensor_type;location;lat;lon;timestamp;temperature;humidity
6738;DHT22;3406;49.902;8.596;2024-03-02T00:01:27;5.90;85.30
6738;DHT22;3406;49.902;8.596;2024-03-02T00:03:54;5.90;85.30
6738;DHT22;3406;49.902;8.596;2024-03-02T00:06:20;5.90;85.40
6738;DHT22;3406;49.902;8.596;2024-03-02T00:08:47;5.90;85.50
6738;DHT22;3406;49.902;8.596;2024-03-02T00:11:14;5.90;85.50
6738;DHT22;3406;49.902;8.596;2024-03-02T00:13:43;5.90;85.60
6738;DHT22;3406;49.902;8.596;2024-03-02T00:16:12;5.80;85.60
6738;DHT22;3406;49.902;8.596;2024-03-02T00:18:39;5.70;85.20
6738;DHT22;3406;49.902;8.596;2024-03-02T00:21:11;5.70;85.60
6738;DHT22;3406;49.902;8.596;2024-03-02T00:23:40;5.70;86.00
6738;DHT22;3406;49.902;8.596;2024-03-02T00:26:07;5.60;86.00
6738;DHT22;3406;49.902;8.596;2024-03-02T00:28:39;5.60;86.20
6738;DHT22;3406;49.902;8.596;2024-03-02T00:31:12;5.60;86.30
6738;DHT22;3406;49.902;8.596;2024-03-02T00:33:42;5.70;86.60
6738;DHT22;3406;49.902;8.596;2024-03-02T00:36:11;5.60;86.50
6738;DHT22;3406;49.902;8.596;2024-03-02T00:38:48;5.60;86.80
6738;DHT22;3406;49.902;8.596;2024-03-02T00:41:17;5.60;87.00
6738;DHT22;3406;49.902;8.596;2024-03-02T00:43:58;5.60;87.00
6738;DHT22;3406;49.902;8.596;2024-03-02T00:46:29;5.60;87.10
6738;DHT22;3406;49.902;8.596;2024-03-02T00:48:58;5.70;87.20
6738;DHT22;3406;49.902;8.596;2024-03-02T00:51:27;5.70;87.20
6738;DHT22;3406;49.902;8.596;2024-03-02T00:53:55;5.70;87.40
6738;DHT22;3406;49.902;8.596;2024-03-02T00:56:22;5.70;87.40
6738;DHT22;3406;49.902;8.596;2024-03-02T00:58:53;5.70;87.30
6738;DHT22;3406;49.902;8.596;2024-03-02T01:01:22;5.70;87.40
6738;DHT22;3406;49.902;8.596;2024-03-02T01:03:53;5.70;87.40
6738;DHT22;3406;49.902;8.596;2024-03-02T01:06:20;5.60;87.00
6738;DHT22;3406;49.902;8.596;2024-03-02T01:08:47;5.50;87.10
6738;DHT22;3406;49.902;8.596;2024-03-02T01:11:18;5.50;87.50
6738;DHT22;3406;49.902;8.596;2024-03-02T01:13:47;5.50;87.70
6738;DHT22;3406;49.902;8.596;2024-03-02T01:16:14;5.40;87.80
6738;DHT22;3406;49.902;8.596;2024-03-02T01:18:41;5.40;87.80
6738;DHT22;3406;49.902;8.596;2024-03-02T01:21:09;5.40;88.10
6738;DHT22;3406;49.902;8.596;2024-03-02T01:23:36;5.40;88.00
6738;DHT22;3406;49.902;8.596;2024-03-02T01:26:03;5.40;88.30
6738;DHT22;3406;49.902;8.596;2024-03-02T01:28:32;5.40;88.20
6738;DHT22;3406;49.902;8.596;2024-03-02T01:31:02;5.40;88.20
6738;DHT22;3406;49.902;8.596;2024-03-02T01:33:32;5.30;88.40
6738;DHT22;3406;49.902;8.596;2024-03-02T01:35:58;5.30;88.70
6738;DHT22;3406;49.902;8.596;2024-03-02T01:38:26;5.30;88.30
6738;DHT22;3406;49.902;8.596;2024-03-02T01:40:54;5.30;88.50
6738;DHT22;3406;49.902;8.596;2024-03-02T01:43:22;5.30;88.50
6738;DHT22;3406;49.902;8.596;2024-03-02T01:45:48;5.20;88.40
6738;DHT22;3406;49.902;8.596;2024-03-02T01:48:15;5.20;88.60
6738;DHT22;3406;49.902;8.596;2024-03-02T01:50:42;5.20;88.60
6738;DHT22;3406;49.902;8.596;2024-03-02T01:53:09;5.20;88.70
6738;DHT22;3406;49.902;8.596;2024-03-02T01:55:37;5.10;88.70
6738;DHT22;3406;49.902;8.596;2024-03-02T01:58:06;5.10;88.60
6738;DHT22;3406;49.902;8.596;2024-03-02T02:00:33;5.10;89.00
6738;DHT22;3406;49.902;8.596;2024-03-02T02:03:00;5.00;88.90
6738;DHT22;3406;49.902;8.596;2024-03-02T02:05:27;5.00;89.00
6738;DHT22;3406;49.902;8.596;2024-03-02T02:07:54;5.00;89.20
6738;DHT22;3406;49.902;8.596;2024-03-02T02:10:21;4.90;89.20
6738;DHT22;3406;49.902;8.596;2024-03-02T02:12:49;4.90;89.40
6738;DHT22;3406;49.902;8.596;2024-03-02T02:15:23;4.90;90.00
6738;DHT22;3406;49.902;8.596;2024-03-02T02:17:50;4.90;89.70
6738;DHT22;3406;49.902;8.596;2024-03-02T02:20:16;4.90;89.80
6738;DHT22;3406;49.902;8.596;2024-03-02T02:22:57;4.90;89.90
6738;DHT22;3406;49.902;8.596;2024-03-02T02:25:24;4.90;90.00
6738;DHT22;3406;49.902;8.596;2024-03-02T02:27:50;4.90;89.90
6738;DHT22;3406;49.902;8.596;2024-03-02T02:30:22;4.90;89.90
6738;DHT22;3406;49.902;8.596;2024-03-02T02:32:49;4.90;90.10
6738;DHT22;3406;49.902;8.596;2024-03-02T02:35:15;4.90;90.10
6738;DHT22;3406;49.902;8.596;2024-03-02T02:37:43;4.90;90.10
6738;DHT22;3406;49.902;8.596;2024-03-02T02:40:12;4.90;90.10
6738;DHT22;3406;49.902;8.596;2024-03-02T02:42:39;4.80;90.00
6738;DHT22;3406;49.902;8.596;2024-03-02T02:45:06;4.80;90.00
6738;DHT22;3406;49.902;8.596;2024-03-02T02:47:33;4.80;90.00
6738;DHT22;3406;49.902;8.596;2024-03-02T02:50:01;4.70;90.00
6738;DHT22;3406;49.902;8.596;2024-03-02T02:52:31;4.60;89.80
6738;DHT22;3406;49.902;8.596;2024-03-02T02:55:01;4.60;90.00
6738;DHT22;3406;49.902;8.596;2024-03-02T02:57:31;4.50;90.10
6738;DHT22;3406;49.902;8.596;2024-03-02T03:00:01;4.60;90.10
6738;DHT22;3406;49.902;8.596;2024-03-02T03:02:31;4.50;90.10
6738;DHT22;3406;49.902;8.596;2024-03-02T03:04:58;4.40;89.60
6738;DHT22;3406;49.902;8.596;2024-03-02T03:07:25;4.40;89.80
6738;DHT22;3406;49.902;8.596;2024-03-02T03:09:52;4.40;90.20
6738;DHT22;3406;49.902;8.596;2024-03-02T03:12:18;4.30;89.90
6738;DHT22;3406;49.902;8.596;2024-03-02T03:14:46;4.30;90.00
6738;DHT22;3406;49.902;8.596;2024-03-02T03:17:13;4.30;90.00
6738;DHT22;3406;49.902;8.596;2024-03-02T03:19:40;4.30;90.00
6738;DHT22;3406;49.902;8.596;2024-03-02T03:22:07;4.20;90.20
6738;DHT22;3406;49.902;8.596;2024-03-02T03:24:33;4.20;90.10
6738;DHT22;3406;49.902;8.596;2024-03-02T03:27:00;4.20;90.10
6738;DHT22;3406;49.902;8.596;2024-03-02T03:29:27;4.20;90.10
6738;DHT22;3406;49.902;8.596;2024-03-02T03:31:55;4.10;90.00
6738;DHT22;3406;49.902;8.596;2024-03-02T03:34:22;4.10;90.20
6738;DHT22;3406;49.902;8.596;2024-03-02T03:36:48;4.10;90.20
6738;DHT22;3406;49.902;8.596;2024-03-02T03:39:23;4.10;90.30
6738;DHT22;3406;49.902;8.596;2024-03-02T03:41:50;4.00;90.20
6738;DHT22;3406;49.902;8.596;2024-03-02T03:44:16;4.00;90.20
6738;DHT22;3406;49.902;8.596;2024-03-02T03:46:43;4.00;90.20
6738;DHT22;3406;49.902;8.596;2024-03-02T03:49:11;4.00;90.30
6738;DHT22;3406;49.902;8.596;2024-03-02T03:51:38;4.00;90.30
6738;DHT22;3406;49.902;8.596;2024-03-02T03:54:04;4.00;90.30
6738;DHT22;3406;49.902;8.596;2024-03-02T03:56:33;4.00;90.20
6738;DHT22;3406;49.902;8.596;2024-03-02T03:58:59;4.00;90.30
6738;DHT22;3406;49.902;8.596;2024-03-02T04:01:27;4.00;90.30
6738;DHT22;3406;49.902;8.596;2024-03-02T04:03:53;4.00;90.30
6738;DHT22;3406;49.902;8.596;2024-03-02T04:06:21;4.00;90.40
6738;DHT22;3406;49.902;8.596;2024-03-02T04:08:48;4.00;90.40
6738;DHT22;3406;49.902;8.596;2024-03-02T04:11:18;3.90;90.30
6738;DHT22;3406;49.902;8.596;2024-03-02T04:13:44;3.90;90.40
6738;DHT22;3406;49.902;8.596;2024-03-02T04:16:11;3.90;90.40
6738;DHT22;3406;49.902;8.596;2024-03-02T04:18:38;3.90;90.40
6738;DHT22;3406;49.902;8.596;2024-03-02T04:21:05;3.90;90.50
6738;DHT22;3406;49.902;8.596;2024-03-02T04:23:34;3.80;90.50
6738;DHT22;3406;49.902;8.596;2024-03-02T04:26:00;3.90;90.50
6738;DHT22;3406;49.902;8.596;2024-03-02T04:28:27;3.90;90.50
6738;DHT22;3406;49.902;8.596;2024-03-02T04:30:54;3.90;90.50
6738;DHT22;3406;49.902;8.596;2024-03-02T04:33:20;3.90;90.50
6738;DHT22;3406;49.902;8.596;2024-03-02T04:35:47;3.90;90.50
6738;DHT22;3406;49.902;8.596;2024-03-02T04:38:14;3.90;90.50
6738;DHT22;3406;49.902;8.596;2024-03-02T04:40:42;3.80;90.50
6738;DHT22;3406;49.902;8.596;2024-03-02T04:43:09;3.80;90.50
6738;DHT22;3406;49.902;8.596;2024-03-02T04:45:37;3.80;90.60
6738;DHT22;3406;49.902;8.596;2024-03-02T04:48:04;3.80;90.60
6738;DHT22;3406;49.902;8.596;2024-03-02T04:50:31;3.80;90.80
6738;DHT22;3406;49.902;8.596;2024-03-02T04:52:57;3.80;90.60
6738;DHT22;3406;49.902;8.596;2024-03-02T04:55:26;3.80;90.60
6738;DHT22;3406;49.902;8.596;2024-03-02T04:58:17;3.70;90.60
6738;DHT22;3406;49.902;8.596;2024-03-02T05:00:44;3.70;90.60
6738;DHT22;3406;49.902;8.596;2024-03-02T05:03:11;3.70;90.60
6738;DHT22;3406;49.902;8.596;2024-03-02T05:05:38;3.70;90.60
6738;DHT22;3406;49.902;8.596;2024-03-02T05:08:05;3.70;90.70
6738;DHT22;3406;49.902;8.596;2024-03-02T05:10:32;3.70;90.70
6738;DHT22;3406;49.902;8.596;2024-03-02T05:12:58;3.70;90.80
6738;DHT22;3406;49.902;8.596;2024-03-02T05:15:26;3.70;90.70
6738;DHT22;3406;49.902;8.596;2024-03-02T05:17:53;3.70;90.70
6738;DHT22;3406;49.902;8.596;2024-03-02T05:20:19;3.70;90.70
6738;DHT22;3406;49.902;8.596;2024-03-02T05:22:46;3.60;90.70
6738;DHT22;3406;49.902;8.596;2024-03-02T05:25:14;3.60;90.70
6738;DHT22;3406;49.902;8.596;2024-03-02T05:27:40;3.60;90.70
6738;DHT22;3406;49.902;8.596;2024-03-02T05:30:08;3.60;90.70
6738;DHT22;3406;49.902;8.596;2024-03-02T05:32:36;3.60;90.70
6738;DHT22;3406;49.902;8.596;2024-03-02T05:35:07;3.50;90.70
6738;DHT22;3406;49.902;8.596;2024-03-02T05:37:37;3.50;90.70
6738;DHT22;3406;49.902;8.596;2024-03-02T05:40:08;3.40;90.70
6738;DHT22;3406;49.902;8.596;2024-03-02T05:42:36;3.40;90.80
6738;DHT22;3406;49.902;8.596;2024-03-02T05:45:04;3.40;90.80
6738;DHT22;3406;49.902;8.596;2024-03-02T05:47:31;3.40;90.90
6738;DHT22;3406;49.902;8.596;2024-03-02T05:49:59;3.40;90.90
6738;DHT22;3406;49.902;8.596;2024-03-02T05:52:26;3.50;91.00
6738;DHT22;3406;49.902;8.596;2024-03-02T05:54:53;3.50;90.90
6738;DHT22;3406;49.902;8.596;2024-03-02T05:57:19;3.50;90.90
6738;DHT22;3406;49.902;8.596;2024-03-02T05:59:59;3.50;90.90
6738;DHT22;3406;49.902;8.596;2024-03-02T06:02:26;3.40;90.80
6738;DHT22;3406;49.902;8.596;2024-03-02T06:04:55;3.40;90.80
6738;DHT22;3406;49.902;8.596;2024-03-02T06:07:23;3.40;90.90
6738;DHT22;3406;49.902;8.596;2024-03-02T06:09:50;3.40;90.90
6738;DHT22;3406;49.902;8.596;2024-03-02T06:12:18;3.30;90.90
6738;DHT22;3406;49.902;8.596;2024-03-02T06:14:45;3.30;90.90
6738;DHT22;3406;49.902;8.596;2024-03-02T06:17:12;3.30;90.90
6738;DHT22;3406;49.902;8.596;2024-03-02T06:19:39;3.30;91.00
6738;DHT22;3406;49.902;8.596;2024-03-02T06:22:05;3.30;91.00
6738;DHT22;3406;49.902;8.596;2024-03-02T06:24:36;3.40;91.10
6738;DHT22;3406;49.902;8.596;2024-03-02T06:27:03;3.40;91.10
6738;DHT22;3406;49.902;8.596;2024-03-02T06:29:32;3.50;91.20
6738;DHT22;3406;49.902;8.596;2024-03-02T06:31:59;3.50;91.20
6738;DHT22;3406;49.902;8.596;2024-03-02T06:34:26;3.50;91.10
6738;DHT22;3406;49.902;8.596;2024-03-02T06:36:52;3.50;91.10
6738;DHT22;3406;49.902;8.596;2024-03-02T06:39:19;3.50;91.10
6738;DHT22;3406;49.902;8.596;2024-03-02T06:41:47;3.60;91.20
6738;DHT22;3406;49.902;8.596;2024-03-02T06:44:17;3.60;91.30
6738;DHT22;3406;49.902;8.596;2024-03-02T06:46:43;3.60;91.30
6738;DHT22;3406;49.902;8.596;2024-03-02T06:49:10;3.60;91.30
6738;DHT22;3406;49.902;8.596;2024-03-02T06:51:37;3.70;91.30
6738;DHT22;3406;49.902;8.596;2024-03-02T06:54:03;3.70;91.30
6738;DHT22;3406;49.902;8.596;2024-03-02T06:56:30;3.70;91.30
6738;DHT22;3406;49.902;8.596;2024-03-02T06:58:59;3.70;91.30
6738;DHT22;3406;49.902;8.596;2024-03-02T07:01:26;3.60;91.20
6738;DHT22;3406;49.902;8.596;2024-03-02T07:03:53;3.60;91.20
6738;DHT22;3406;49.902;8.596;2024-03-02T07:06:20;3.60;91.30
6738;DHT22;3406;49.902;8.596;2024-03-02T07:08:47;3.60;91.30
6738;DHT22;3406;49.902;8.596;2024-03-02T07:11:13;3.60;91.40
6738;DHT22;3406;49.902;8.596;2024-03-02T07:13:40;3.60;91.40
6738;DHT22;3406;49.902;8.596;2024-03-02T07:16:08;3.70;91.40
6738;DHT22;3406;49.902;8.596;2024-03-02T07:18:57;3.60;91.40
6738;DHT22;3406;49.902;8.596;2024-03-02T07:21:24;3.70;91.40
6738;DHT22;3406;49.902;8.596;2024-03-02T07:23:51;3.70;91.50
6738;DHT22;3406;49.902;8.596;2024-03-02T07:26:18;3.70;91.50
6738;DHT22;3406;49.902;8.596;2024-03-02T07:28:46;3.80;91.50
6738;DHT22;3406;49.902;8.596;2024-03-02T07:31:14;3.80;91.60
6738;DHT22;3406;49.902;8.596;2024-03-02T07:33:43;3.90;91.60
6738;DHT22;3406;49.902;8.596;2024-03-02T07:36:10;3.90;91.60
6738;DHT22;3406;49.902;8.596;2024-03-02T07:38:37;3.90;91.60
6738;DHT22;3406;49.902;8.596;2024-03-02T07:41:05;3.90;91.60
6738;DHT22;3406;49.902;8.596;2024-03-02T07:43:33;4.00;91.70
6738;DHT22;3406;49.902;8.596;2024-03-02T07:46:00;4.00;91.70
6738;DHT22;3406;49.902;8.596;2024-03-02T07:48:28;4.10;91.70
6738;DHT22;3406;49.902;8.596;2024-03-02T07:50:56;4.10;91.70
6738;DHT22;3406;49.902;8.596;2024-03-02T07:53:23;4.20;91.70
6738;DHT22;3406;49.902;8.596;2024-03-02T07:55:50;4.30;91.80
6738;DHT22;3406;49.902;8.596;2024-03-02T07:58:16;4.40;91.80
6738;DHT22;3406;49.902;8.596;2024-03-02T08:00:45;4.50;91.90
6738;DHT22;3406;49.902;8.596;2024-03-02T08:03:11;4.60;92.00
6738;DHT22;3406;49.902;8.596;2024-03-02T08:05:40;4.70;92.00
6738;DHT22;3406;49.902;8.596;2024-03-02T08:08:07;4.90;92.50
6738;DHT22;3406;49.902;8.596;2024-03-02T08:10:34;5.00;92.20
6738;DHT22;3406;49.902;8.596;2024-03-02T08:13:01;5.10;92.20
6738;DHT22;3406;49.902;8.596;2024-03-02T08:15:28;5.30;92.40
6738;DHT22;3406;49.902;8.596;2024-03-02T08:17:55;5.50;92.40
6738;DHT22;3406;49.902;8.596;2024-03-02T08:20:22;5.60;92.40
6738;DHT22;3406;49.902;8.596;2024-03-02T08:22:50;5.80;92.50
6738;DHT22;3406;49.902;8.596;2024-03-02T08:25:17;6.00;92.50
6738;DHT22;3406;49.902;8.596;2024-03-02T08:27:44;6.10;92.50
6738;DHT22;3406;49.902;8.596;2024-03-02T08:30:12;6.30;92.50
6738;DHT22;3406;49.902;8.596;2024-03-02T08:32:38;6.40;92.60
6738;DHT22;3406;49.902;8.596;2024-03-02T08:35:06;6.60;92.60
6738;DHT22;3406;49.902;8.596;2024-03-02T08:37:33;6.70;92.60
6738;DHT22;3406;49.902;8.596;2024-03-02T08:40:02;6.90;92.60
6738;DHT22;3406;49.902;8.596;2024-03-02T08:42:29;7.00;92.60
6738;DHT22;3406;49.902;8.596;2024-03-02T08:44:57;7.10;92.50
6738;DHT22;3406;49.902;8.596;2024-03-02T08:47:26;7.20;92.50
6738;DHT22;3406;49.902;8.596;2024-03-02T08:49:53;7.40;92.60
6738;DHT22;3406;49.902;8.596;2024-03-02T08:52:22;7.50;92.60
6738;DHT22;3406;49.902;8.596;2024-03-02T08:54:48;7.60;92.60
6738;DHT22;3406;49.902;8.596;2024-03-02T08:57:16;7.70;92.50
6738;DHT22;3406;49.902;8.596;2024-03-02T08:59:43;7.80;92.50
6738;DHT22;3406;49.902;8.596;2024-03-02T09:02:12;8.00;92.60
6738;DHT22;3406;49.902;8.596;2024-03-02T09:04:39;8.10;92.60
6738;DHT22;3406;49.902;8.596;2024-03-02T09:07:06;8.20;92.60
6738;DHT22;3406;49.902;8.596;2024-03-02T09:09:33;8.40;92.50
6738;DHT22;3406;49.902;8.596;2024-03-02T09:12:00;8.50;92.50
6738;DHT22;3406;49.902;8.596;2024-03-02T09:14:28;8.60;92.40
6738;DHT22;3406;49.902;8.596;2024-03-02T09:16:55;8.80;92.30
6738;DHT22;3406;49.902;8.596;2024-03-02T09:19:21;8.90;92.30
6738;DHT22;3406;49.902;8.596;2024-03-02T09:21:48;9.00;92.20
6738;DHT22;3406;49.902;8.596;2024-03-02T09:24:15;9.10;92.00
6738;DHT22;3406;49.902;8.596;2024-03-02T09:26:42;9.20;91.80
6738;DHT22;3406;49.902;8.596;2024-03-02T09:29:09;9.30;91.70
6738;DHT22;3406;49.902;8.596;2024-03-02T09:31:40;9.30;91.60
6738;DHT22;3406;49.902;8.596;2024-03-02T09:34:07;9.40;91.40
6738;DHT22;3406;49.902;8.596;2024-03-02T09:36:34;9.50;91.30
6738;DHT22;3406;49.902;8.596;2024-03-02T09:39:00;9.50;91.20
6738;DHT22;3406;49.902;8.596;2024-03-02T09:41:29;9.50;91.20
6738;DHT22;3406;49.902;8.596;2024-03-02T09:43:55;9.70;91.20
6738;DHT22;3406;49.902;8.596;2024-03-02T09:46:23;9.80;91.10
6738;DHT22;3406;49.902;8.596;2024-03-02T09:48:51;9.90;91.00
6738;DHT22;3406;49.902;8.596;2024-03-02T09:51:19;10.00;90.40
6738;DHT22;3406;49.902;8.596;2024-03-02T09:53:47;10.10;90.30
6738;DHT22;3406;49.902;8.596;2024-03-02T09:56:14;10.20;90.20
6738;DHT22;3406;49.902;8.596;2024-03-02T09:58:44;10.30;90.00
6738;DHT22;3406;49.902;8.596;2024-03-02T10:01:11;10.40;89.90
6738;DHT22;3406;49.902;8.596;2024-03-02T10:03:41;10.50;89.50
6738;DHT22;3406;49.902;8.596;2024-03-02T10:06:23;10.60;89.40
6738;DHT22;3406;49.902;8.596;2024-03-02T10:08:51;10.70;89.00
6738;DHT22;3406;49.902;8.596;2024-03-02T10:11:27;10.70;88.50
6738;DHT22;3406;49.902;8.596;2024-03-02T10:14:07;10.80;88.30
6738;DHT22;3406;49.902;8.596;2024-03-02T10:16:35;10.90;88.00
6738;DHT22;3406;49.902;8.596;2024-03-02T10:19:23;11.00;87.50
6738;DHT22;3406;49.902;8.596;2024-03-02T10:21:54;11.10;87.00
6738;DHT22;3406;49.902;8.596;2024-03-02T10:24:22;11.10;86.00
6738;DHT22;3406;49.902;8.596;2024-03-02T10:26:49;11.20;85.30
6738;DHT22;3406;49.902;8.596;2024-03-02T10:29:16;11.20;85.00
6738;DHT22;3406;49.902;8.596;2024-03-02T10:31:44;11.30;84.80
6738;DHT22;3406;49.902;8.596;2024-03-02T10:34:12;11.30;84.50
6738;DHT22;3406;49.902;8.596;2024-03-02T10:36:41;11.40;84.20
6738;DHT22;3406;49.902;8.596;2024-03-02T10:39:10;11.50;84.00
6738;DHT22;3406;49.902;8.596;2024-03-02T10:41:38;11.60;83.70
6738;DHT22;3406;49.902;8.596;2024-03-02T10:44:07;11.60;83.40
6738;DHT22;3406;49.902;8.596;2024-03-02T10:46:35;11.60;82.90
6738;DHT22;3406;49.902;8.596;2024-03-02T10:49:03;11.70;82.80
6738;DHT22;3406;49.902;8.596;2024-03-02T10:51:31;11.80;82.80
6738;DHT22;3406;49.902;8.596;2024-03-02T10:53:58;12.10;82.60
6738;DHT22;3406;49.902;8.596;2024-03-02T10:56:28;12.30;81.80
6738;DHT22;3406;49.902;8.596;2024-03-02T10:59:01;12.50;81.30
6738;DHT22;3406;49.902;8.596;2024-03-02T11:01:29;12.50;80.60
6738;DHT22;3406;49.902;8.596;2024-03-02T11:03:56;12.50;79.40
6738;DHT22;3406;49.902;8.596;2024-03-02T11:06:26;12.40;78.50
6738;DHT22;3406;49.902;8.596;2024-03-02T11:08:55;12.30;78.40
6738;DHT22;3406;49.902;8.596;2024-03-02T11:11:30;12.40;78.40
6738;DHT22;3406;49.902;8.596;2024-03-02T11:14:01;12.40;78.10
6738;DHT22;3406;49.902;8.596;2024-03-02T11:16:34;12.50;77.70
6738;DHT22;3406;49.902;8.596;2024-03-02T11:19:03;12.60;77.20
6738;DHT22;3406;49.902;8.596;2024-03-02T11:21:32;12.60;76.70
6738;DHT22;3406;49.902;8.596;2024-03-02T11:23:59;12.70;76.80
6738;DHT22;3406;49.902;8.596;2024-03-02T11:26:27;12.80;76.00
6738;DHT22;3406;49.902;8.596;2024-03-02T11:28:55;12.90;75.50
6738;DHT22;3406;49.902;8.596;2024-03-02T11:31:57;12.90;74.40
6738;DHT22;3406;49.902;8.596;2024-03-02T11:34:29;12.90;73.80
6738;DHT22;3406;49.902;8.596;2024-03-02T11:36:56;12.90;73.80
6738;DHT22;3406;49.902;8.596;2024-03-02T11:39:22;13.00;72.90
6738;DHT22;3406;49.902;8.596;2024-03-02T11:41:49;13.10;73.30
6738;DHT22;3406;49.902;8.596;2024-03-02T11:44:17;13.20;72.40
6738;DHT22;3406;49.902;8.596;2024-03-02T11:46:45;13.20;72.20
6738;DHT22;3406;49.902;8.596;2024-03-02T11:49:14;13.30;71.90
6738;DHT22;3406;49.902;8.596;2024-03-02T11:51:51;13.30;71.80
6738;DHT22;3406;49.902;8.596;2024-03-02T11:54:19;13.40;71.20
6738;DHT22;3406;49.902;8.596;2024-03-02T11:56:46;13.50;70.80
6738;DHT22;3406;49.902;8.596;2024-03-02T11:59:13;13.70;70.40
6738;DHT22;3406;49.902;8.596;2024-03-02T12:01:42;13.80;69.90
6738;DHT22;3406;49.902;8.596;2024-03-02T12:04:10;14.10;69.30
6738;DHT22;3406;49.902;8.596;2024-03-02T12:06:37;14.30;67.60
6738;DHT22;3406;49.902;8.596;2024-03-02T12:09:05;14.40;67.30
6738;DHT22;3406;49.902;8.596;2024-03-02T12:11:32;14.40;67.00
6738;DHT22;3406;49.902;8.596;2024-03-02T12:13:59;14.50;66.70
6738;DHT22;3406;49.902;8.596;2024-03-02T12:16:26;14.50;66.40
6738;DHT22;3406;49.902;8.596;2024-03-02T12:18:56;14.50;66.00
6738;DHT22;3406;49.902;8.596;2024-03-02T12:21:23;14.50;65.40
6738;DHT22;3406;49.902;8.596;2024-03-02T12:23:50;14.60;65.50
6738;DHT22;3406;49.902;8.596;2024-03-02T12:26:17;14.50;64.70
6738;DHT22;3406;49.902;8.596;2024-03-02T12:28:45;14.50;64.40
6738;DHT22;3406;49.902;8.596;2024-03-02T12:31:13;14.50;64.00
6738;DHT22;3406;49.902;8.596;2024-03-02T12:33:41;14.50;63.70
6738;DHT22;3406;49.902;8.596;2024-03-02T12:36:10;14.50;63.10
6738;DHT22;3406;49.902;8.596;2024-03-02T12:38:38;14.50;63.10
6738;DHT22;3406;49.902;8.596;2024-03-02T12:41:09;14.60;62.30
6738;DHT22;3406;49.902;8.596;2024-03-02T12:43:38;14.50;61.40
6738;DHT22;3406;49.902;8.596;2024-03-02T12:46:05;14.60;61.10
6738;DHT22;3406;49.902;8.596;2024-03-02T12:48:32;14.60;61.10
6738;DHT22;3406;49.902;8.596;2024-03-02T12:50:59;14.70;60.80
6738;DHT22;3406;49.902;8.596;2024-03-02T12:53:28;14.80;60.80
6738;DHT22;3406;49.902;8.596;2024-03-02T12:55:55;14.90;60.70
6738;DHT22;3406;49.902;8.596;2024-03-02T12:58:22;15.00;60.40
6738;DHT22;3406;49.902;8.596;2024-03-02T13:00:50;15.00;60.00
6738;DHT22;3406;49.902;8.596;2024-03-02T13:03:18;15.10;59.80
6738;DHT22;3406;49.902;8.596;2024-03-02T13:05:48;15.20;59.70
6738;DHT22;3406;49.902;8.596;2024-03-02T13:08:16;15.40;59.40
6738;DHT22;3406;49.902;8.596;2024-03-02T13:10:45;15.50;58.90
6738;DHT22;3406;49.902;8.596;2024-03-02T13:13:12;15.40;58.60
6738;DHT22;3406;49.902;8.596;2024-03-02T13:15:40;15.40;58.40
6738;DHT22;3406;49.902;8.596;2024-03-02T13:18:07;15.30;58.50
6738;DHT22;3406;49.902;8.596;2024-03-02T13:20:34;15.30;58.40
6738;DHT22;3406;49.902;8.596;2024-03-02T13:23:02;15.30;58.40
6738;DHT22;3406;49.902;8.596;2024-03-02T13:25:29;15.30;58.20
6738;DHT22;3406;49.902;8.596;2024-03-02T13:27:58;15.30;58.10
6738;DHT22;3406;49.902;8.596;2024-03-02T13:30:26;15.30;58.00
6738;DHT22;3406;49.902;8.596;2024-03-02T13:32:53;15.50;58.10
6738;DHT22;3406;49.902;8.596;2024-03-02T13:35:20;15.60;57.70
6738;DHT22;3406;49.902;8.596;2024-03-02T13:37:47;15.70;57.60
6738;DHT22;3406;49.902;8.596;2024-03-02T13:40:15;15.70;57.20
6738;DHT22;3406;49.902;8.596;2024-03-02T13:42:45;15.80;56.90
6738;DHT22;3406;49.902;8.596;2024-03-02T13:45:14;15.80;56.80
6738;DHT22;3406;49.902;8.596;2024-03-02T13:47:41;15.90;56.80
6738;DHT22;3406;49.902;8.596;2024-03-02T13:50:08;15.90;56.70
6738;DHT22;3406;49.902;8.596;2024-03-02T13:52:35;15.90;56.80
6738;DHT22;3406;49.902;8.596;2024-03-02T13:55:02;15.90;56.80
6738;DHT22;3406;49.902;8.596;2024-03-02T13:57:29;15.90;56.40
6738;DHT22;3406;49.902;8.596;2024-03-02T13:59:56;15.80;56.10
6738;DHT22;3406;49.902;8.596;2024-03-02T14:02:24;15.80;56.30
6738;DHT22;3406;49.902;8.596;2024-03-02T14:04:51;15.80;56.40
6738;DHT22;3406;49.902;8.596;2024-03-02T14:07:18;15.80;56.60
6738;DHT22;3406;49.902;8.596;2024-03-02T14:09:44;15.80;56.70
6738;DHT22;3406;49.902;8.596;2024-03-02T14:12:12;15.80;56.70
6738;DHT22;3406;49.902;8.596;2024-03-02T14:14:39;15.70;56.80
6738;DHT22;3406;49.902;8.596;2024-03-02T14:17:06;15.70;56.90
6738;DHT22;3406;49.902;8.596;2024-03-02T14:19:38;15.70;56.90
6738;DHT22;3406;49.902;8.596;2024-03-02T14:22:05;15.70;57.00
6738;DHT22;3406;49.902;8.596;2024-03-02T14:24:32;15.80;57.20
6738;DHT22;3406;49.902;8.596;2024-03-02T14:26:59;15.80;57.10
6738;DHT22;3406;49.902;8.596;2024-03-02T14:29:29;15.90;57.20
6738;DHT22;3406;49.902;8.596;2024-03-02T14:31:56;16.00;57.10
6738;DHT22;3406;49.902;8.596;2024-03-02T14:34:23;16.10;57.10
6738;DHT22;3406;49.902;8.596;2024-03-02T14:36:51;16.10;57.00
6738;DHT22;3406;49.902;8.596;2024-03-02T14:39:18;16.20;56.90
6738;DHT22;3406;49.902;8.596;2024-03-02T14:41:45;16.20;56.80
6738;DHT22;3406;49.902;8.596;2024-03-02T14:44:12;16.20;56.70
6738;DHT22;3406;49.902;8.596;2024-03-02T14:46:39;16.20;56.60
6738;DHT22;3406;49.902;8.596;2024-03-02T14:49:06;16.20;56.50
6738;DHT22;3406;49.902;8.596;2024-03-02T14:51:33;16.20;56.60
6738;DHT22;3406;49.902;8.596;2024-03-02T14:54:01;16.10;56.60
6738;DHT22;3406;49.902;8.596;2024-03-02T14:56:28;16.00;56.60
6738;DHT22;3406;49.902;8.596;2024-03-02T14:58:55;15.90;56.80
6738;DHT22;3406;49.902;8.596;2024-03-02T15:01:22;15.80;56.80
6738;DHT22;3406;49.902;8.596;2024-03-02T15:03:50;15.80;56.90
6738;DHT22;3406;49.902;8.596;2024-03-02T15:06:17;15.80;56.70
6738;DHT22;3406;49.902;8.596;2024-03-02T15:08:44;15.80;57.00
6738;DHT22;3406;49.902;8.596;2024-03-02T15:11:13;15.90;57.00
6738;DHT22;3406;49.902;8.596;2024-03-02T15:13:41;16.00;56.80
6738;DHT22;3406;49.902;8.596;2024-03-02T15:16:08;16.00;56.70
6738;DHT22;3406;49.902;8.596;2024-03-02T15:18:35;16.00;56.50
6738;DHT22;3406;49.902;8.596;2024-03-02T15:21:02;16.10;56.60
6738;DHT22;3406;49.902;8.596;2024-03-02T15:23:29;16.20;56.60
6738;DHT22;3406;49.902;8.596;2024-03-02T15:25:55;16.20;56.40
6738;DHT22;3406;49.902;8.596;2024-03-02T15:28:23;16.30;56.20
6738;DHT22;3406;49.902;8.596;2024-03-02T15:30:50;16.30;56.70
6738;DHT22;3406;49.902;8.596;2024-03-02T15:33:17;16.30;56.10
6738;DHT22;3406;49.902;8.596;2024-03-02T15:35:44;16.40;56.20
6738;DHT22;3406;49.902;8.596;2024-03-02T15:38:10;16.40;56.00
6738;DHT22;3406;49.902;8.596;2024-03-02T15:40:40;16.40;55.80
6738;DHT22;3406;49.902;8.596;2024-03-02T15:43:07;16.30;55.90
6738;DHT22;3406;49.902;8.596;2024-03-02T15:45:35;16.30;56.00
6738;DHT22;3406;49.902;8.596;2024-03-02T15:48:03;16.30;55.90
6738;DHT22;3406;49.902;8.596;2024-03-02T15:50:30;16.20;56.10
6738;DHT22;3406;49.902;8.596;2024-03-02T15:52:58;16.20;56.20
6738;DHT22;3406;49.902;8.596;2024-03-02T15:55:28;16.10;56.40
6738;DHT22;3406;49.902;8.596;2024-03-02T15:57:55;16.00;56.50
6738;DHT22;3406;49.902;8.596;2024-03-02T16:00:22;15.90;56.70
6738;DHT22;3406;49.902;8.596;2024-03-02T16:02:50;15.80;56.90
6738;DHT22;3406;49.902;8.596;2024-03-02T16:05:16;15.80;57.10
6738;DHT22;3406;49.902;8.596;2024-03-02T16:07:43;15.80;57.20
6738;DHT22;3406;49.902;8.596;2024-03-02T16:10:10;15.70;57.20
6738;DHT22;3406;49.902;8.596;2024-03-02T16:12:38;15.60;57.10
6738;DHT22;3406;49.902;8.596;2024-03-02T16:15:05;15.60;57.20
6738;DHT22;3406;49.902;8.596;2024-03-02T16:17:34;15.50;57.30